sensor_id;sensor_type;location;lat;lon;timestamp;P1;durP1;ratioP1;P2;durP2;ratioP2
73980;SDS011;62348;51.412;5.436;2023-06-05T00:00:52;6.40;;;3.08;;
73980;SDS011;62348;51.412;5.436;2023-06-05T00:03:18;4.30;;;2.70;;
73980;SDS011;62348;51.412;5.436;2023-06-05T00:05:43;7.55;;;2.63;;
73980;SDS011;62348;51.412;5.436;2023-06-05T00:08:08;3.97;;;3.10;;
73980;SDS011;62348;51.412;5.436;2023-06-05T00:10:34;5.82;;;2.85;;
73980;SDS011;62348;51.412;5.436;2023-06-05T00:12:59;8.63;;;2.78;;
73980;SDS011;62348;51.412;5.436;2023-06-05T00:15:25;4.72;;;2.70;;
73980;SDS011;62348;51.412;5.436;2023-06-05T00:17:50;6.78;;;2.95;;
73980;SDS011;62348;51.412;5.436;2023-06-05T00:20:17;6.88;;;2.95;;
73980;SDS011;62348;51.412;5.436;2023-06-05T00:22:42;6.50;;;3.47;;
73980;SDS011;62348;51.412;5.436;2023-06-05T00:25:09;6.43;;;2.90;;
73980;SDS011;62348;51.412;5.436;2023-06-05T00:27:35;4.05;;;2.63;;
73980;SDS011;62348;51.412;5.436;2023-06-05T00:30:00;5.75;;;3.05;;
73980;SDS011;62348;51.412;5.436;2023-06-05T00:32:26;3.58;;;2.90;;
73980;SDS011;62348;51.412;5.436;2023-06-05T00:34:51;6.18;;;3.10;;
73980;SDS011;62348;51.412;5.436;2023-06-05T00:37:16;4.30;;;3.45;;
73980;SDS011;62348;51.412;5.436;2023-06-05T00:39:42;5.20;;;3.22;;
73980;SDS011;62348;51.412;5.436;2023-06-05T00:42:07;5.95;;;2.85;;
73980;SDS011;62348;51.412;5.436;2023-06-05T00:44:36;5.38;;;2.83;;
73980;SDS011;62348;51.412;5.436;2023-06-05T00:47:02;6.03;;;3.00;;
73980;SDS011;62348;51.412;5.436;2023-06-05T00:49:28;8.40;;;3.20;;
73980;SDS011;62348;51.412;5.436;2023-06-05T00:51:54;6.53;;;3.08;;
73980;SDS011;62348;51.412;5.436;2023-06-05T00:54:21;7.35;;;3.65;;
73980;SDS011;62348;51.412;5.436;2023-06-05T00:56:47;5.15;;;3.20;;
73980;SDS011;62348;51.412;5.436;2023-06-05T00:59:12;6.68;;;3.53;;
73980;SDS011;62348;51.412;5.436;2023-06-05T01:01:39;6.72;;;3.80;;
73980;SDS011;62348;51.412;5.436;2023-06-05T01:04:05;5.65;;;3.22;;
73980;SDS011;62348;51.412;5.436;2023-06-05T01:06:31;5.22;;;3.15;;
73980;SDS011;62348;51.412;5.436;2023-06-05T01:08:59;6.55;;;3.50;;
73980;SDS011;62348;51.412;5.436;2023-06-05T01:14:24;5.78;;;2.97;;
73980;SDS011;62348;51.412;5.436;2023-06-05T01:16:53;4.05;;;2.70;;
73980;SDS011;62348;51.412;5.436;2023-06-05T01:19:20;6.80;;;3.30;;
73980;SDS011;62348;51.412;5.436;2023-06-05T01:21:49;11.70;;;5.70;;
73980;SDS011;62348;51.412;5.436;2023-06-05T01:24:15;6.50;;;3.42;;
73980;SDS011;62348;51.412;5.436;2023-06-05T01:29:21;4.80;;;3.22;;
73980;SDS011;62348;51.412;5.436;2023-06-05T01:32:13;6.53;;;3.50;;
73980;SDS011;62348;51.412;5.436;2023-06-05T01:35:03;6.55;;;4.05;;
73980;SDS011;62348;51.412;5.436;2023-06-05T01:37:31;5.03;;;3.67;;
73980;SDS011;62348;51.412;5.436;2023-06-05T01:40:05;4.80;;;3.53;;
73980;SDS011;62348;51.412;5.436;2023-06-05T01:42:34;10.55;;;4.15;;
73980;SDS011;62348;51.412;5.436;2023-06-05T01:45:01;8.30;;;4.07;;
73980;SDS011;62348;51.412;5.436;2023-06-05T01:47:27;8.35;;;4.25;;
73980;SDS011;62348;51.412;5.436;2023-06-05T01:49:53;6.55;;;3.80;;
73980;SDS011;62348;51.412;5.436;2023-06-05T01:52:20;5.78;;;3.80;;
73980;SDS011;62348;51.412;5.436;2023-06-05T01:54:45;6.88;;;3.55;;
73980;SDS011;62348;51.412;5.436;2023-06-05T01:57:13;6.90;;;4.20;;
73980;SDS011;62348;51.412;5.436;2023-06-05T01:59:40;5.35;;;3.50;;
73980;SDS011;62348;51.412;5.436;2023-06-05T02:02:05;4.90;;;3.67;;
73980;SDS011;62348;51.412;5.436;2023-06-05T02:04:31;10.45;;;4.10;;
73980;SDS011;62348;51.412;5.436;2023-06-05T02:06:57;6.30;;;4.35;;
73980;SDS011;62348;51.412;5.436;2023-06-05T02:09:28;4.63;;;3.72;;
73980;SDS011;62348;51.412;5.436;2023-06-05T02:11:54;7.03;;;4.43;;
73980;SDS011;62348;51.412;5.436;2023-06-05T02:14:19;7.53;;;4.10;;
73980;SDS011;62348;51.412;5.436;2023-06-05T02:16:47;4.60;;;3.78;;
73980;SDS011;62348;51.412;5.436;2023-06-05T02:19:13;7.35;;;4.72;;
73980;SDS011;62348;51.412;5.436;2023-06-05T02:21:39;6.22;;;4.20;;
73980;SDS011;62348;51.412;5.436;2023-06-05T02:24:04;6.15;;;4.30;;
73980;SDS011;62348;51.412;5.436;2023-06-05T02:26:30;6.70;;;4.43;;
73980;SDS011;62348;51.412;5.436;2023-06-05T02:28:55;6.93;;;4.07;;
73980;SDS011;62348;51.412;5.436;2023-06-05T02:31:22;7.00;;;4.57;;
73980;SDS011;62348;51.412;5.436;2023-06-05T02:33:52;8.82;;;5.07;;
73980;SDS011;62348;51.412;5.436;2023-06-05T02:36:19;6.53;;;4.45;;
73980;SDS011;62348;51.412;5.436;2023-06-05T02:38:44;5.47;;;4.15;;
73980;SDS011;62348;51.412;5.436;2023-06-05T02:41:10;7.45;;;4.30;;
73980;SDS011;62348;51.412;5.436;2023-06-05T02:43:36;8.02;;;4.82;;
73980;SDS011;62348;51.412;5.436;2023-06-05T02:46:01;6.93;;;4.68;;
73980;SDS011;62348;51.412;5.436;2023-06-05T02:48:27;8.02;;;4.45;;
73980;SDS011;62348;51.412;5.436;2023-06-05T02:50:52;7.72;;;4.85;;
73980;SDS011;62348;51.412;5.436;2023-06-05T02:53:17;4.75;;;4.03;;
73980;SDS011;62348;51.412;5.436;2023-06-05T02:55:43;10.77;;;5.38;;
73980;SDS011;62348;51.412;5.436;2023-06-05T02:58:09;6.75;;;4.95;;
73980;SDS011;62348;51.412;5.436;2023-06-05T03:00:38;7.80;;;4.72;;
73980;SDS011;62348;51.412;5.436;2023-06-05T03:03:03;9.07;;;5.30;;
73980;SDS011;62348;51.412;5.436;2023-06-05T03:05:31;8.73;;;5.97;;
73980;SDS011;62348;51.412;5.436;2023-06-05T03:07:57;9.20;;;5.03;;
73980;SDS011;62348;51.412;5.436;2023-06-05T03:10:22;8.70;;;5.28;;
73980;SDS011;62348;51.412;5.436;2023-06-05T03:12:48;11.32;;;6.40;;
73980;SDS011;62348;51.412;5.436;2023-06-05T03:15:13;10.32;;;5.50;;
73980;SDS011;62348;51.412;5.436;2023-06-05T03:17:40;7.03;;;5.05;;
73980;SDS011;62348;51.412;5.436;2023-06-05T03:20:06;11.80;;;5.63;;
73980;SDS011;62348;51.412;5.436;2023-06-05T03:22:34;6.97;;;5.10;;
73980;SDS011;62348;51.412;5.436;2023-06-05T03:24:59;9.82;;;5.90;;
73980;SDS011;62348;51.412;5.436;2023-06-05T03:27:25;6.72;;;5.25;;
73980;SDS011;62348;51.412;5.436;2023-06-05T03:29:50;7.20;;;5.25;;
73980;SDS011;62348;51.412;5.436;2023-06-05T03:32:15;8.23;;;5.63;;
73980;SDS011;62348;51.412;5.436;2023-06-05T03:34:41;9.20;;;5.38;;
73980;SDS011;62348;51.412;5.436;2023-06-05T03:37:07;8.10;;;5.88;;
73980;SDS011;62348;51.412;5.436;2023-06-05T03:39:33;8.73;;;5.70;;
73980;SDS011;62348;51.412;5.436;2023-06-05T03:41:58;10.35;;;5.72;;
73980;SDS011;62348;51.412;5.436;2023-06-05T03:44:25;7.85;;;5.35;;
73980;SDS011;62348;51.412;5.436;2023-06-05T03:46:50;9.15;;;6.22;;
73980;SDS011;62348;51.412;5.436;2023-06-05T03:49:16;9.77;;;5.85;;
73980;SDS011;62348;51.412;5.436;2023-06-05T03:51:41;9.15;;;6.25;;
73980;SDS011;62348;51.412;5.436;2023-06-05T03:54:09;6.47;;;5.85;;
73980;SDS011;62348;51.412;5.436;2023-06-05T03:56:37;8.27;;;5.80;;
73980;SDS011;62348;51.412;5.436;2023-06-05T03:59:08;7.88;;;6.45;;
73980;SDS011;62348;51.412;5.436;2023-06-05T04:01:37;8.60;;;6.10;;
73980;SDS011;62348;51.412;5.436;2023-06-05T04:04:06;8.88;;;5.95;;
73980;SDS011;62348;51.412;5.436;2023-06-05T04:06:33;9.45;;;6.22;;
73980;SDS011;62348;51.412;5.436;2023-06-05T04:08:59;10.52;;;7.18;;
73980;SDS011;62348;51.412;5.436;2023-06-05T04:11:25;7.30;;;5.97;;
73980;SDS011;62348;51.412;5.436;2023-06-05T04:13:52;9.02;;;6.65;;
73980;SDS011;62348;51.412;5.436;2023-06-05T04:16:18;11.98;;;6.20;;
73980;SDS011;62348;51.412;5.436;2023-06-05T04:18:44;10.52;;;7.10;;
73980;SDS011;62348;51.412;5.436;2023-06-05T04:21:09;7.70;;;6.03;;
73980;SDS011;62348;51.412;5.436;2023-06-05T04:23:35;10.07;;;6.35;;
73980;SDS011;62348;51.412;5.436;2023-06-05T04:26:01;8.65;;;6.53;;
73980;SDS011;62348;51.412;5.436;2023-06-05T04:28:28;10.77;;;7.22;;
73980;SDS011;62348;51.412;5.436;2023-06-05T04:30:54;12.65;;;7.18;;
73980;SDS011;62348;51.412;5.436;2023-06-05T04:33:21;11.55;;;6.65;;
73980;SDS011;62348;51.412;5.436;2023-06-05T04:35:46;8.98;;;6.90;;
73980;SDS011;62348;51.412;5.436;2023-06-05T04:38:12;10.77;;;7.05;;
73980;SDS011;62348;51.412;5.436;2023-06-05T04:40:37;8.88;;;6.78;;
73980;SDS011;62348;51.412;5.436;2023-06-05T04:43:03;7.90;;;6.95;;
73980;SDS011;62348;51.412;5.436;2023-06-05T04:45:28;9.52;;;7.00;;
73980;SDS011;62348;51.412;5.436;2023-06-05T04:47:54;9.98;;;7.47;;
73980;SDS011;62348;51.412;5.436;2023-06-05T04:50:23;12.13;;;7.72;;
73980;SDS011;62348;51.412;5.436;2023-06-05T04:52:51;9.77;;;7.27;;
73980;SDS011;62348;51.412;5.436;2023-06-05T04:55:18;8.77;;;7.63;;
73980;SDS011;62348;51.412;5.436;2023-06-05T04:57:44;9.90;;;7.50;;
73980;SDS011;62348;51.412;5.436;2023-06-05T05:00:10;13.07;;;7.65;;
73980;SDS011;62348;51.412;5.436;2023-06-05T05:02:37;10.52;;;7.40;;
73980;SDS011;62348;51.412;5.436;2023-06-05T05:05:02;11.88;;;7.60;;
73980;SDS011;62348;51.412;5.436;2023-06-05T05:07:29;14.68;;;8.93;;
73980;SDS011;62348;51.412;5.436;2023-06-05T05:09:54;11.00;;;7.75;;
73980;SDS011;62348;51.412;5.436;2023-06-05T05:12:20;12.50;;;8.40;;
73980;SDS011;62348;51.412;5.436;2023-06-05T05:14:46;13.40;;;8.40;;
73980;SDS011;62348;51.412;5.436;2023-06-05T05:17:11;10.95;;;7.97;;
73980;SDS011;62348;51.412;5.436;2023-06-05T05:19:37;9.23;;;7.88;;
73980;SDS011;62348;51.412;5.436;2023-06-05T05:22:06;11.82;;;7.85;;
73980;SDS011;62348;51.412;5.436;2023-06-05T05:24:31;11.80;;;8.07;;
73980;SDS011;62348;51.412;5.436;2023-06-05T05:26:57;13.75;;;8.45;;
73980;SDS011;62348;51.412;5.436;2023-06-05T05:29:22;11.55;;;7.72;;
73980;SDS011;62348;51.412;5.436;2023-06-05T05:31:48;12.13;;;8.32;;
73980;SDS011;62348;51.412;5.436;2023-06-05T05:34:13;11.80;;;8.95;;
73980;SDS011;62348;51.412;5.436;2023-06-05T05:36:38;13.30;;;8.85;;
73980;SDS011;62348;51.412;5.436;2023-06-05T05:39:04;10.75;;;8.63;;
73980;SDS011;62348;51.412;5.436;2023-06-05T05:41:29;11.23;;;9.10;;
73980;SDS011;62348;51.412;5.436;2023-06-05T05:43:55;11.23;;;9.00;;
73980;SDS011;62348;51.412;5.436;2023-06-05T05:46:20;14.57;;;8.93;;
73980;SDS011;62348;51.412;5.436;2023-06-05T05:48:46;10.63;;;8.85;;
73980;SDS011;62348;51.412;5.436;2023-06-05T05:51:11;11.55;;;8.20;;
73980;SDS011;62348;51.412;5.436;2023-06-05T05:53:37;13.02;;;8.43;;
73980;SDS011;62348;51.412;5.436;2023-06-05T05:56:02;15.65;;;8.98;;
73980;SDS011;62348;51.412;5.436;2023-06-05T05:58:28;13.07;;;8.98;;
73980;SDS011;62348;51.412;5.436;2023-06-05T06:00:54;12.82;;;9.00;;
73980;SDS011;62348;51.412;5.436;2023-06-05T06:03:20;13.35;;;8.75;;
73980;SDS011;62348;51.412;5.436;2023-06-05T06:05:46;11.73;;;8.25;;
73980;SDS011;62348;51.412;5.436;2023-06-05T06:08:11;11.55;;;8.25;;
73980;SDS011;62348;51.412;5.436;2023-06-05T06:10:37;12.45;;;8.65;;
73980;SDS011;62348;51.412;5.436;2023-06-05T06:13:03;14.02;;;8.93;;
73980;SDS011;62348;51.412;5.436;2023-06-05T06:15:29;13.05;;;8.98;;
73980;SDS011;62348;51.412;5.436;2023-06-05T06:17:55;10.70;;;8.52;;
73980;SDS011;62348;51.412;5.436;2023-06-05T06:20:21;12.88;;;8.82;;
73980;SDS011;62348;51.412;5.436;2023-06-05T06:22:47;13.00;;;9.00;;
73980;SDS011;62348;51.412;5.436;2023-06-05T06:25:13;14.57;;;8.90;;
73980;SDS011;62348;51.412;5.436;2023-06-05T06:27:40;11.18;;;8.05;;
73980;SDS011;62348;51.412;5.436;2023-06-05T06:30:07;12.93;;;8.30;;
73980;SDS011;62348;51.412;5.436;2023-06-05T06:32:33;11.73;;;8.38;;
73980;SDS011;62348;51.412;5.436;2023-06-05T06:34:58;11.10;;;8.32;;
73980;SDS011;62348;51.412;5.436;2023-06-05T06:37:24;11.45;;;8.75;;
73980;SDS011;62348;51.412;5.436;2023-06-05T06:39:50;9.77;;;7.93;;
73980;SDS011;62348;51.412;5.436;2023-06-05T06:42:15;11.38;;;7.95;;
73980;SDS011;62348;51.412;5.436;2023-06-05T06:44:41;14.40;;;9.40;;
73980;SDS011;62348;51.412;5.436;2023-06-05T06:47:07;13.73;;;8.73;;
73980;SDS011;62348;51.412;5.436;2023-06-05T06:49:36;11.55;;;8.68;;
73980;SDS011;62348;51.412;5.436;2023-06-05T06:52:01;14.15;;;8.50;;
73980;SDS011;62348;51.412;5.436;2023-06-05T06:54:27;11.48;;;8.45;;
73980;SDS011;62348;51.412;5.436;2023-06-05T06:56:54;13.60;;;8.63;;
73980;SDS011;62348;51.412;5.436;2023-06-05T06:59:19;10.95;;;8.20;;
73980;SDS011;62348;51.412;5.436;2023-06-05T07:01:45;13.77;;;9.90;;
73980;SDS011;62348;51.412;5.436;2023-06-05T07:04:15;12.75;;;9.10;;
73980;SDS011;62348;51.412;5.436;2023-06-05T07:06:45;12.35;;;8.82;;
73980;SDS011;62348;51.412;5.436;2023-06-05T07:09:11;13.48;;;9.02;;
73980;SDS011;62348;51.412;5.436;2023-06-05T07:11:37;15.68;;;9.85;;
73980;SDS011;62348;51.412;5.436;2023-06-05T07:14:03;12.30;;;9.38;;
73980;SDS011;62348;51.412;5.436;2023-06-05T07:16:29;13.25;;;8.32;;
73980;SDS011;62348;51.412;5.436;2023-06-05T07:18:54;14.93;;;8.80;;
73980;SDS011;62348;51.412;5.436;2023-06-05T07:21:20;12.65;;;8.23;;
73980;SDS011;62348;51.412;5.436;2023-06-05T07:23:49;11.40;;;7.85;;
73980;SDS011;62348;51.412;5.436;2023-06-05T07:26:18;13.68;;;8.70;;
73980;SDS011;62348;51.412;5.436;2023-06-05T07:28:44;10.52;;;7.60;;
73980;SDS011;62348;51.412;5.436;2023-06-05T07:31:11;11.82;;;8.88;;
73980;SDS011;62348;51.412;5.436;2023-06-05T07:33:38;11.65;;;7.88;;
73980;SDS011;62348;51.412;5.436;2023-06-05T07:36:03;13.27;;;8.82;;
73980;SDS011;62348;51.412;5.436;2023-06-05T07:38:29;12.05;;;8.77;;
73980;SDS011;62348;51.412;5.436;2023-06-05T07:40:54;12.10;;;8.25;;
73980;SDS011;62348;51.412;5.436;2023-06-05T07:43:23;11.45;;;8.15;;
73980;SDS011;62348;51.412;5.436;2023-06-05T07:45:51;14.10;;;8.63;;
73980;SDS011;62348;51.412;5.436;2023-06-05T07:48:16;12.63;;;8.52;;
73980;SDS011;62348;51.412;5.436;2023-06-05T07:50:42;11.43;;;8.45;;
73980;SDS011;62348;51.412;5.436;2023-06-05T07:53:07;15.27;;;9.48;;
73980;SDS011;62348;51.412;5.436;2023-06-05T07:55:32;10.85;;;8.05;;
73980;SDS011;62348;51.412;5.436;2023-06-05T07:57:58;10.73;;;8.38;;
73980;SDS011;62348;51.412;5.436;2023-06-05T08:00:25;13.13;;;8.15;;
73980;SDS011;62348;51.412;5.436;2023-06-05T08:02:51;13.88;;;8.10;;
73980;SDS011;62348;51.412;5.436;2023-06-05T08:05:18;10.85;;;8.40;;
73980;SDS011;62348;51.412;5.436;2023-06-05T08:07:44;10.40;;;7.70;;
73980;SDS011;62348;51.412;5.436;2023-06-05T08:10:09;15.73;;;8.05;;
73980;SDS011;62348;51.412;5.436;2023-06-05T08:12:35;10.95;;;7.00;;
73980;SDS011;62348;51.412;5.436;2023-06-05T08:15:00;10.80;;;7.32;;
73980;SDS011;62348;51.412;5.436;2023-06-05T08:17:27;10.18;;;7.40;;
73980;SDS011;62348;51.412;5.436;2023-06-05T08:19:53;10.48;;;7.32;;
73980;SDS011;62348;51.412;5.436;2023-06-05T08:22:18;12.65;;;7.68;;
73980;SDS011;62348;51.412;5.436;2023-06-05T08:24:44;10.20;;;6.88;;
73980;SDS011;62348;51.412;5.436;2023-06-05T08:27:09;8.10;;;6.65;;
73980;SDS011;62348;51.412;5.436;2023-06-05T08:29:35;9.93;;;7.03;;
73980;SDS011;62348;51.412;5.436;2023-06-05T08:32:02;11.63;;;7.72;;
73980;SDS011;62348;51.412;5.436;2023-06-05T08:34:29;15.88;;;7.60;;
73980;SDS011;62348;51.412;5.436;2023-06-05T08:36:56;9.75;;;6.75;;
73980;SDS011;62348;51.412;5.436;2023-06-05T08:39:23;9.93;;;6.78;;
73980;SDS011;62348;51.412;5.436;2023-06-05T08:41:52;10.30;;;7.25;;
73980;SDS011;62348;51.412;5.436;2023-06-05T08:44:20;11.90;;;6.75;;
73980;SDS011;62348;51.412;5.436;2023-06-05T08:46:46;10.07;;;7.68;;
73980;SDS011;62348;51.412;5.436;2023-06-05T08:49:14;10.02;;;7.18;;
73980;SDS011;62348;51.412;5.436;2023-06-05T08:51:45;8.50;;;7.15;;
73980;SDS011;62348;51.412;5.436;2023-06-05T08:54:15;9.57;;;6.80;;
73980;SDS011;62348;51.412;5.436;2023-06-05T08:56:42;8.55;;;6.47;;
73980;SDS011;62348;51.412;5.436;2023-06-05T08:59:09;11.38;;;7.38;;
73980;SDS011;62348;51.412;5.436;2023-06-05T09:01:35;11.55;;;7.25;;
73980;SDS011;62348;51.412;5.436;2023-06-05T09:04:02;11.38;;;6.40;;
73980;SDS011;62348;51.412;5.436;2023-06-05T09:06:28;9.32;;;6.50;;
73980;SDS011;62348;51.412;5.436;2023-06-05T09:08:53;10.68;;;7.10;;
73980;SDS011;62348;51.412;5.436;2023-06-05T09:11:26;10.48;;;7.55;;
73980;SDS011;62348;51.412;5.436;2023-06-05T09:13:57;14.90;;;6.05;;
73980;SDS011;62348;51.412;5.436;2023-06-05T09:16:36;13.10;;;7.05;;
73980;SDS011;62348;51.412;5.436;2023-06-05T09:19:07;11.18;;;6.50;;
73980;SDS011;62348;51.412;5.436;2023-06-05T09:21:33;12.82;;;7.70;;
73980;SDS011;62348;51.412;5.436;2023-06-05T09:26:50;10.32;;;6.47;;
73980;SDS011;62348;51.412;5.436;2023-06-05T09:29:26;8.70;;;5.75;;
73980;SDS011;62348;51.412;5.436;2023-06-05T09:31:54;7.25;;;5.95;;
73980;SDS011;62348;51.412;5.436;2023-06-05T09:34:28;10.30;;;7.15;;
73980;SDS011;62348;51.412;5.436;2023-06-05T09:36:55;8.52;;;5.78;;
73980;SDS011;62348;51.412;5.436;2023-06-05T09:39:22;10.75;;;6.63;;
73980;SDS011;62348;51.412;5.436;2023-06-05T09:41:52;11.98;;;6.55;;
73980;SDS011;62348;51.412;5.436;2023-06-05T09:44:19;9.02;;;6.60;;
73980;SDS011;62348;51.412;5.436;2023-06-05T09:46:51;9.93;;;6.97;;
73980;SDS011;62348;51.412;5.436;2023-06-05T09:49:30;9.30;;;6.53;;
73980;SDS011;62348;51.412;5.436;2023-06-05T09:52:01;9.25;;;6.57;;
73980;SDS011;62348;51.412;5.436;2023-06-05T09:54:27;9.63;;;5.72;;
73980;SDS011;62348;51.412;5.436;2023-06-05T09:57:01;14.25;;;6.85;;
73980;SDS011;62348;51.412;5.436;2023-06-05T09:59:29;8.93;;;5.05;;
73980;SDS011;62348;51.412;5.436;2023-06-05T10:02:02;15.05;;;6.55;;
73980;SDS011;62348;51.412;5.436;2023-06-05T10:04:29;10.15;;;6.28;;
73980;SDS011;62348;51.412;5.436;2023-06-05T10:07:03;10.10;;;6.22;;
73980;SDS011;62348;51.412;5.436;2023-06-05T10:09:29;12.27;;;7.22;;
73980;SDS011;62348;51.412;5.436;2023-06-05T10:11:57;9.95;;;6.57;;
73980;SDS011;62348;51.412;5.436;2023-06-05T10:14:23;9.48;;;6.25;;
73980;SDS011;62348;51.412;5.436;2023-06-05T10:16:49;15.38;;;6.57;;
73980;SDS011;62348;51.412;5.436;2023-06-05T10:19:16;7.32;;;5.80;;
73980;SDS011;62348;51.412;5.436;2023-06-05T10:21:46;14.48;;;5.45;;
73980;SDS011;62348;51.412;5.436;2023-06-05T10:24:14;9.00;;;6.20;;
73980;SDS011;62348;51.412;5.436;2023-06-05T10:35:01;10.68;;;5.90;;
73980;SDS011;62348;51.412;5.436;2023-06-05T10:40:00;9.82;;;5.15;;
73980;SDS011;62348;51.412;5.436;2023-06-05T10:42:26;8.13;;;5.10;;
73980;SDS011;62348;51.412;5.436;2023-06-05T10:44:52;6.53;;;4.97;;
73980;SDS011;62348;51.412;5.436;2023-06-05T10:52:46;10.70;;;5.38;;
73980;SDS011;62348;51.412;5.436;2023-06-05T10:55:12;9.30;;;5.90;;
73980;SDS011;62348;51.412;5.436;2023-06-05T11:00:20;11.75;;;5.68;;
73980;SDS011;62348;51.412;5.436;2023-06-05T11:02:47;9.40;;;5.28;;
73980;SDS011;62348;51.412;5.436;2023-06-05T11:05:13;8.10;;;5.07;;
73980;SDS011;62348;51.412;5.436;2023-06-05T11:07:39;10.85;;;5.18;;
73980;SDS011;62348;51.412;5.436;2023-06-05T11:10:14;10.50;;;5.70;;
73980;SDS011;62348;51.412;5.436;2023-06-05T11:15:33;8.32;;;5.47;;
73980;SDS011;62348;51.412;5.436;2023-06-05T11:20:57;9.15;;;5.05;;
73980;SDS011;62348;51.412;5.436;2023-06-05T11:23:24;10.77;;;5.97;;
73980;SDS011;62348;51.412;5.436;2023-06-05T11:25:57;11.40;;;5.05;;
73980;SDS011;62348;51.412;5.436;2023-06-05T11:28:43;6.30;;;4.45;;
73980;SDS011;62348;51.412;5.436;2023-06-05T11:31:09;7.40;;;3.65;;
73980;SDS011;62348;51.412;5.436;2023-06-05T11:33:35;7.88;;;4.60;;
73980;SDS011;62348;51.412;5.436;2023-06-05T11:36:01;7.63;;;4.47;;
73980;SDS011;62348;51.412;5.436;2023-06-05T11:38:29;8.65;;;5.05;;
73980;SDS011;62348;51.412;5.436;2023-06-05T11:40:55;7.72;;;3.83;;
73980;SDS011;62348;51.412;5.436;2023-06-05T11:43:21;7.43;;;3.70;;
73980;SDS011;62348;51.412;5.436;2023-06-05T11:45:53;5.57;;;3.50;;
73980;SDS011;62348;51.412;5.436;2023-06-05T11:48:21;10.30;;;3.88;;
73980;SDS011;62348;51.412;5.436;2023-06-05T11:50:51;7.07;;;3.90;;
73980;SDS011;62348;51.412;5.436;2023-06-05T11:53:23;8.23;;;4.10;;
73980;SDS011;62348;51.412;5.436;2023-06-05T11:55:50;7.15;;;4.50;;
73980;SDS011;62348;51.412;5.436;2023-06-05T12:00:49;7.18;;;4.38;;
73980;SDS011;62348;51.412;5.436;2023-06-05T12:03:21;5.32;;;3.40;;
73980;SDS011;62348;51.412;5.436;2023-06-05T12:05:47;8.07;;;4.43;;
73980;SDS011;62348;51.412;5.436;2023-06-05T12:08:23;7.82;;;3.90;;
73980;SDS011;62348;51.412;5.436;2023-06-05T12:10:57;4.72;;;3.20;;
73980;SDS011;62348;51.412;5.436;2023-06-05T12:13:24;4.97;;;3.72;;
73980;SDS011;62348;51.412;5.436;2023-06-05T12:16:19;7.40;;;3.00;;
73980;SDS011;62348;51.412;5.436;2023-06-05T12:18:54;6.53;;;3.08;;
73980;SDS011;62348;51.412;5.436;2023-06-05T12:21:20;4.20;;;2.95;;
73980;SDS011;62348;51.412;5.436;2023-06-05T12:23:46;6.00;;;3.35;;
73980;SDS011;62348;51.412;5.436;2023-06-05T12:26:12;9.95;;;3.72;;
73980;SDS011;62348;51.412;5.436;2023-06-05T12:28:37;6.95;;;3.78;;
73980;SDS011;62348;51.412;5.436;2023-06-05T12:31:04;5.32;;;2.92;;
73980;SDS011;62348;51.412;5.436;2023-06-05T12:33:30;5.22;;;3.10;;
73980;SDS011;62348;51.412;5.436;2023-06-05T12:36:02;5.55;;;3.00;;
73980;SDS011;62348;51.412;5.436;2023-06-05T12:38:37;5.07;;;2.60;;
73980;SDS011;62348;51.412;5.436;2023-06-05T12:41:03;3.70;;;2.58;;
73980;SDS011;62348;51.412;5.436;2023-06-05T12:43:31;5.95;;;3.22;;
73980;SDS011;62348;51.412;5.436;2023-06-05T12:45:57;4.38;;;2.92;;
73980;SDS011;62348;51.412;5.436;2023-06-05T12:48:22;4.97;;;3.45;;
73980;SDS011;62348;51.412;5.436;2023-06-05T12:50:48;5.07;;;2.90;;
73980;SDS011;62348;51.412;5.436;2023-06-05T12:53:14;9.25;;;3.63;;
73980;SDS011;62348;51.412;5.436;2023-06-05T12:55:39;4.82;;;2.50;;
73980;SDS011;62348;51.412;5.436;2023-06-05T12:58:06;4.70;;;2.65;;
73980;SDS011;62348;51.412;5.436;2023-06-05T13:00:31;4.97;;;2.72;;
73980;SDS011;62348;51.412;5.436;2023-06-05T13:02:57;5.05;;;2.38;;
73980;SDS011;62348;51.412;5.436;2023-06-05T13:05:22;5.30;;;2.70;;
73980;SDS011;62348;51.412;5.436;2023-06-05T13:07:48;8.85;;;2.40;;
73980;SDS011;62348;51.412;5.436;2023-06-05T13:10:16;3.88;;;2.60;;
73980;SDS011;62348;51.412;5.436;2023-06-05T13:12:42;5.25;;;2.17;;
73980;SDS011;62348;51.412;5.436;2023-06-05T13:15:08;3.88;;;2.25;;
73980;SDS011;62348;51.412;5.436;2023-06-05T13:17:34;3.92;;;2.35;;
73980;SDS011;62348;51.412;5.436;2023-06-05T13:20:01;6.22;;;2.53;;
73980;SDS011;62348;51.412;5.436;2023-06-05T13:22:31;11.35;;;2.90;;
73980;SDS011;62348;51.412;5.436;2023-06-05T13:24:57;4.85;;;2.65;;
73980;SDS011;62348;51.412;5.436;2023-06-05T13:27:22;6.05;;;2.50;;
73980;SDS011;62348;51.412;5.436;2023-06-05T13:29:48;4.45;;;2.28;;
73980;SDS011;62348;51.412;5.436;2023-06-05T13:32:13;4.25;;;2.60;;
73980;SDS011;62348;51.412;5.436;2023-06-05T13:34:39;7.88;;;2.83;;
73980;SDS011;62348;51.412;5.436;2023-06-05T13:37:04;4.28;;;2.83;;
73980;SDS011;62348;51.412;5.436;2023-06-05T13:39:29;6.05;;;2.38;;
73980;SDS011;62348;51.412;5.436;2023-06-05T13:41:55;4.40;;;2.03;;
73980;SDS011;62348;51.412;5.436;2023-06-05T13:44:20;5.78;;;2.60;;
73980;SDS011;62348;51.412;5.436;2023-06-05T13:46:46;4.05;;;2.15;;
73980;SDS011;62348;51.412;5.436;2023-06-05T13:49:11;4.38;;;2.30;;
73980;SDS011;62348;51.412;5.436;2023-06-05T13:51:37;4.93;;;2.33;;
73980;SDS011;62348;51.412;5.436;2023-06-05T13:54:03;5.30;;;1.98;;
73980;SDS011;62348;51.412;5.436;2023-06-05T13:56:29;3.42;;;2.30;;
73980;SDS011;62348;51.412;5.436;2023-06-05T13:58:55;4.90;;;1.88;;
73980;SDS011;62348;51.412;5.436;2023-06-05T14:01:22;3.45;;;2.50;;
73980;SDS011;62348;51.412;5.436;2023-06-05T14:03:47;4.38;;;2.10;;
73980;SDS011;62348;51.412;5.436;2023-06-05T14:06:13;3.80;;;2.72;;
73980;SDS011;62348;51.412;5.436;2023-06-05T14:08:38;5.50;;;2.60;;
73980;SDS011;62348;51.412;5.436;2023-06-05T14:11:04;2.33;;;1.83;;
73980;SDS011;62348;51.412;5.436;2023-06-05T14:13:29;3.70;;;2.05;;
73980;SDS011;62348;51.412;5.436;2023-06-05T14:15:55;3.58;;;2.13;;
73980;SDS011;62348;51.412;5.436;2023-06-05T14:18:21;4.43;;;2.35;;
73980;SDS011;62348;51.412;5.436;2023-06-05T14:20:46;3.95;;;2.40;;
73980;SDS011;62348;51.412;5.436;2023-06-05T14:23:12;4.13;;;2.17;;
73980;SDS011;62348;51.412;5.436;2023-06-05T14:25:37;3.83;;;2.30;;
73980;SDS011;62348;51.412;5.436;2023-06-05T14:28:03;3.42;;;2.38;;
73980;SDS011;62348;51.412;5.436;2023-06-05T14:30:28;6.35;;;2.00;;
73980;SDS011;62348;51.412;5.436;2023-06-05T14:32:54;2.45;;;2.10;;
73980;SDS011;62348;51.412;5.436;2023-06-05T14:35:20;5.70;;;2.10;;
73980;SDS011;62348;51.412;5.436;2023-06-05T14:37:47;2.47;;;1.85;;
73980;SDS011;62348;51.412;5.436;2023-06-05T14:40:13;4.75;;;2.25;;
73980;SDS011;62348;51.412;5.436;2023-06-05T14:42:38;6.55;;;2.20;;
73980;SDS011;62348;51.412;5.436;2023-06-05T14:45:04;2.78;;;2.08;;
73980;SDS011;62348;51.412;5.436;2023-06-05T14:47:30;3.42;;;2.05;;
73980;SDS011;62348;51.412;5.436;2023-06-05T14:49:56;4.75;;;2.45;;
73980;SDS011;62348;51.412;5.436;2023-06-05T14:52:21;6.15;;;1.98;;
73980;SDS011;62348;51.412;5.436;2023-06-05T14:54:46;3.70;;;2.13;;
73980;SDS011;62348;51.412;5.436;2023-06-05T14:57:12;6.43;;;2.25;;
73980;SDS011;62348;51.412;5.436;2023-06-05T14:59:37;3.92;;;1.85;;
73980;SDS011;62348;51.412;5.436;2023-06-05T15:02:03;4.18;;;2.67;;
73980;SDS011;62348;51.412;5.436;2023-06-05T15:04:28;4.45;;;2.10;;
73980;SDS011;62348;51.412;5.436;2023-06-05T15:06:54;2.97;;;2.33;;
73980;SDS011;62348;51.412;5.436;2023-06-05T15:09:20;4.65;;;2.42;;
73980;SDS011;62348;51.412;5.436;2023-06-05T15:11:46;3.58;;;2.03;;
73980;SDS011;62348;51.412;5.436;2023-06-05T15:14:12;4.38;;;2.45;;
73980;SDS011;62348;51.412;5.436;2023-06-05T15:16:38;4.10;;;2.40;;